Time;durP1;ratioP1;P1;durP2;ratioP2;P2;SDS_P1;SDS_P2;PMS_P1;PMS_P2;Temp;Humidity;BMP_temperature;BMP_pressure;BME280_temperature;BME280_humidity;BME280_pressure;Samples;Min_cycle;Max_cycle;Signal;HPM_P1;HPM_P2
2021/08/05 00:09:04;;;;;;;14.80;11.20;;;17.00;99.90;;;;;;6766987;88;20216;-81
2021/08/05 00:19:05;;;;;;;14.73;11.60;;;17.20;99.90;;;;;;6750026;88;20177;-81
2021/08/05 00:29:06;;;;;;;14.10;11.80;;;17.00;99.90;;;;;;6733181;88;20157;-81
2021/08/05 00:39:07;;;;;;;13.38;11.55;;;16.90;99.90;;;;;;6732967;88;20294;-81
2021/08/05 00:49:08;;;;;;;14.47;11.77;;;16.70;99.90;;;;;;6719081;88;20181;-82
2021/08/05 00:59:08;;;;;;;15.45;12.18;;;16.70;99.90;;;;;;6744643;88;20922;-82
2021/08/05 01:09:46;;;;;;;14.48;11.43;;;16.70;99.90;;;;;;6749029;88;20168;-84
2021/08/05 01:19:56;;;;;;;12.50;10.98;;;16.70;99.90;;;;;;6749328;88;20197;-81
2021/08/05 01:29:58;;;;;;;15.40;12.18;;;16.40;99.90;;;;;;6765705;88;20222;-84
2021/08/05 01:39:59;;;;;;;15.15;11.45;;;16.60;99.90;;;;;;6747941;88;20276;-82
2021/08/05 01:49:59;;;;;;;14.30;11.18;;;16.50;99.90;;;;;;6713296;88;21051;-82
2021/08/05 02:00:00;;;;;;;15.37;12.07;;;16.40;99.90;;;;;;6680379;89;20168;-83
2021/08/05 02:10:21;;;;;;;15.00;12.37;;;16.30;99.90;;;;;;6681027;89;20566;-83
2021/08/05 02:20:22;;;;;;;16.70;13.13;;;16.00;99.90;;;;;;6722346;88;20202;-82
2021/08/05 02:30:23;;;;;;;13.68;11.52;;;16.00;99.90;;;;;;6724596;88;20248;-81
2021/08/05 02:51:26;;;;;;;15.38;12.77;;;15.90;99.90;;;;;;6727192;88;20270;-77
2021/08/05 03:01:27;;;;;;;16.58;12.32;;;16.00;99.90;;;;;;6725802;88;20241;-76
2021/08/05 03:11:28;;;;;;;15.82;12.10;;;16.20;99.90;;;;;;6715823;88;20606;-76
2021/08/05 03:21:28;;;;;;;16.00;11.67;;;16.10;99.90;;;;;;6725882;88;20288;-78
2021/08/05 03:31:29;;;;;;;15.50;12.48;;;16.10;99.90;;;;;;6719995;88;20489;-77
2021/08/05 03:41:29;;;;;;;16.87;13.10;;;16.00;99.90;;;;;;6715340;88;20240;-76
2021/08/05 03:51:30;;;;;;;14.53;11.77;;;16.00;99.90;;;;;;6717046;88;20798;-77
2021/08/05 04:01:30;;;;;;;17.45;12.50;;;16.10;99.90;;;;;;6737137;88;20177;-76
2021/08/05 04:11:31;;;;;;;17.12;13.13;;;16.20;99.90;;;;;;6721929;88;20193;-76
2021/08/05 04:21:32;;;;;;;16.45;11.70;;;16.10;99.90;;;;;;6740887;88;20762;-77
2021/08/05 04:31:32;;;;;;;15.13;12.55;;;16.10;99.90;;;;;;6717705;88;20193;-76
2021/08/05 04:41:33;;;;;;;14.98;12.55;;;16.10;99.90;;;;;;6713094;88;20188;-76
2021/08/05 04:51:34;;;;;;;17.35;12.70;;;15.90;99.90;;;;;;6716298;88;20181;-76
2021/08/05 05:01:34;;;;;;;16.65;12.85;;;16.00;99.90;;;;;;6715922;88;20219;-77
2021/08/05 05:11:35;;;;;;;16.93;12.67;;;16.00;99.90;;;;;;6716309;88;20277;-76
2021/08/05 05:21:36;;;;;;;15.18;11.70;;;16.40;99.90;;;;;;6716562;88;20914;-76
2021/08/05 05:31:36;;;;;;;16.55;13.25;;;16.50;99.90;;;;;;6717964;88;20508;-77
2021/08/05 05:41:37;;;;;;;19.50;12.98;;;16.50;99.90;;;;;;6716453;88;20189;-76
2021/08/05 05:51:38;;;;;;;18.03;12.90;;;16.50;99.90;;;;;;6716461;88;20271;-78
2021/08/05 06:01:38;;;;;;;17.93;13.97;;;16.70;99.90;;;;;;6715882;88;20503;-77
2021/08/05 06:11:39;;;;;;;20.88;14.77;;;16.80;99.90;;;;;;6716815;88;20518;-77
2021/08/05 06:21:40;;;;;;;18.50;14.52;;;16.70;99.90;;;;;;6716414;88;20185;-77
2021/08/05 06:31:41;;;;;;;19.33;12.63;;;17.00;99.90;;;;;;6716917;88;20696;-77
2021/08/05 06:41:41;;;;;;;18.55;13.68;;;17.10;99.90;;;;;;6717370;88;20197;-78
2021/08/05 06:51:42;;;;;;;14.63;12.10;;;17.20;99.90;;;;;;6717571;88;20229;-77
2021/08/05 07:01:42;;;;;;;13.48;11.10;;;17.50;99.90;;;;;;6715972;88;20193;-77
2021/08/05 07:11:43;;;;;;;15.52;10.80;;;17.70;99.90;;;;;;6716876;88;20205;-77
2021/08/05 07:21:43;;;;;;;13.52;9.90;;;18.00;99.90;;;;;;6717581;88;20655;-77
2021/08/05 07:31:44;;;;;;;10.93;9.45;;;18.50;99.90;;;;;;6719359;88;20285;-77
2021/08/05 07:41:44;;;;;;;15.48;9.32;;;18.70;99.90;;;;;;6723955;88;20264;-78
2021/08/05 07:51:45;;;;;;;17.70;10.50;;;18.90;99.90;;;;;;6726610;88;20209;-77
2021/08/05 08:01:45;;;;;;;12.43;9.05;;;18.90;99.90;;;;;;6730574;88;20202;-78
2021/08/05 08:11:46;;;;;;;11.47;8.90;;;19.20;99.90;;;;;;6726531;88;20701;-78
2021/08/05 08:21:46;;;;;;;10.75;8.07;;;19.50;99.90;;;;;;6718421;88;20275;-76
2021/08/05 08:31:48;;;;;;;12.80;8.30;;;19.90;99.90;;;;;;6716781;88;20283;-76
2021/08/05 08:41:50;;;;;;;9.95;7.65;;;19.90;99.90;;;;;;6727448;77;20221;-78
2021/08/05 08:51:52;;;;;;;8.63;6.75;;;20.20;99.90;;;;;;6744115;88;20306;-79
2021/08/05 09:01:53;;;;;;;11.40;6.65;;;20.60;99.90;;;;;;6744497;88;20281;-78
2021/08/05 09:11:53;;;;;;;8.30;5.93;;;21.10;99.90;;;;;;6744540;88;20196;-79
2021/08/05 09:22:01;;;;;;;6.55;5.15;;;21.30;99.90;;;;;;6743895;88;20210;-78
2021/08/05 09:32:03;;;;;;;5.40;4.20;;;21.80;99.90;;;;;;6739945;88;20240;-80
2021/08/05 09:42:06;;;;;;;7.43;3.60;;;23.50;99.90;;;;;;6741716;88;20197;-79
2021/08/05 09:52:10;;;;;;;5.53;3.20;;;25.80;99.90;;;;;;6741248;88;20277;-80
2021/08/05 10:02:10;;;;;;;2.90;2.45;;;26.80;99.90;;;;;;6742704;88;20191;-79
2021/08/05 10:12:20;;;;;;;4.10;2.63;;;27.40;99.20;;;;;;6742289;88;20210;-80
2021/08/05 10:22:23;;;;;;;4.15;2.80;;;25.60;99.90;;;;;;6742261;88;20506;-78
2021/08/05 10:32:24;;;;;;;4.67;3.17;;;24.40;99.90;;;;;;6742285;88;20998;-78
2021/08/05 10:42:25;;;;;;;4.90;3.25;;;22.70;99.90;;;;;;6742309;88;20315;-79
2021/08/05 10:52:34;;;;;;;6.03;2.80;;;22.00;99.90;;;;;;6741470;88;20258;-79
2021/08/05 11:02:55;;;;;;;3.65;2.60;;;21.90;99.90;;;;;;6741016;88;20279;-79
2021/08/05 11:13:07;;;;;;;4.12;2.85;;;22.00;99.90;;;;;;6738685;88;20286;-79
2021/08/05 11:23:29;;;;;;;4.75;2.60;;;21.30;99.90;;;;;;6739926;88;20224;-79
2021/08/05 11:33:39;;;;;;;4.12;2.33;;;20.80;99.90;;;;;;6742935;88;20240;-79
2021/08/05 11:43:39;;;;;;;4.55;2.75;;;20.90;99.90;;;;;;6742365;88;20314;-80
2021/08/05 11:53:43;;;;;;;3.22;2.30;;;21.30;99.90;;;;;;6741656;88;20356;-78
2021/08/05 12:03:44;;;;;;;3.58;2.47;;;22.00;99.90;;;;;;6741465;88;20714;-78
2021/08/05 12:13:45;;;;;;;3.83;2.10;;;23.00;99.90;;;;;;6743876;88;20195;-79
2021/08/05 12:23:52;;;;;;;4.53;2.30;;;24.70;99.90;;;;;;6744566;88;20193;-79
2021/08/05 12:33:52;;;;;;;7.25;2.30;;;25.80;99.90;;;;;;6743295;88;20522;-79
2021/08/05 12:43:55;;;;;;;2.03;1.30;;;25.10;99.90;;;;;;6740233;88;20196;-79
2021/08/05 12:53:56;;;;;;;2.50;1.57;;;25.00;99.90;;;;;;6743555;88;20200;-79
2021/08/05 13:03:59;;;;;;;2.70;1.80;;;27.40;99.90;;;;;;6744565;88;20249;-79
2021/08/05 13:13:59;;;;;;;2.27;1.50;;;27.10;99.10;;;;;;6744766;88;20242;-79
2021/08/05 13:24:21;;;;;;;2.28;1.65;;;25.70;99.90;;;;;;6743536;88;20529;-79
2021/08/05 13:34:21;;;;;;;3.80;1.90;;;24.90;99.90;;;;;;6743449;88;20202;-79
2021/08/05 13:44:22;;;;;;;3.75;1.95;;;24.60;99.90;;;;;;6743377;88;20192;-79
2021/08/05 13:54:22;;;;;;;4.82;2.22;;;23.40;99.90;;;;;;6742567;88;20258;-79
2021/08/05 14:04:23;;;;;;;4.10;2.00;;;21.70;99.90;;;;;;6737745;88;20217;-78
2021/08/05 14:14:23;;;;;;;3.53;1.70;;;21.40;99.90;;;;;;6743033;88;20200;-78
2021/08/05 14:24:24;;;;;;;2.20;1.60;;;20.90;99.90;;;;;;6742982;88;20642;-79
2021/08/05 14:34:25;;;;;;;2.40;1.27;;;21.50;99.90;;;;;;6742972;88;20184;-80
2021/08/05 14:44:25;;;;;;;2.73;0.80;;;22.30;99.90;;;;;;6734507;77;20775;-76
2021/08/05 14:54:26;;;;;;;1.62;0.85;;;23.50;99.90;;;;;;6730409;88;20243;-76
2021/08/05 15:04:27;;;;;;;1.30;0.63;;;22.80;99.90;;;;;;6730222;88;20208;-76
2021/08/05 15:14:27;;;;;;;1.23;0.70;;;23.20;99.90;;;;;;6729928;88;20539;-76
2021/08/05 15:24:30;;;;;;;1.85;0.80;;;23.10;99.90;;;;;;6730033;88;20318;-75
2021/08/05 15:34:30;;;;;;;1.20;0.70;;;23.10;99.90;;;;;;6730196;88;20239;-76
2021/08/05 15:44:31;;;;;;;1.45;0.85;;;22.70;99.90;;;;;;6730877;88;20802;-75
2021/08/05 15:54:32;;;;;;;1.52;1.00;;;22.10;99.90;;;;;;6736431;88;20192;-76
2021/08/05 16:04:33;;;;;;;1.50;1.00;;;22.10;99.90;;;;;;6741798;88;20703;-76
2021/08/05 16:14:33;;;;;;;3.10;1.35;;;21.80;99.90;;;;;;6732870;88;20939;-76
2021/08/05 16:24:34;;;;;;;1.73;1.17;;;21.80;99.90;;;;;;6732729;88;20227;-76
2021/08/05 16:34:34;;;;;;;1.63;0.83;;;21.80;99.90;;;;;;6732251;88;20276;-76
2021/08/05 16:44:40;;;;;;;2.55;1.23;;;21.70;99.90;;;;;;6731994;88;20210;-76
2021/08/05 16:54:40;;;;;;;1.87;1.05;;;21.70;99.90;;;;;;6732390;88;20240;-76
2021/08/05 17:04:41;;;;;;;2.28;1.10;;;21.90;99.90;;;;;;6731822;88;20198;-78
2021/08/05 17:14:42;;;;;;;1.60;1.10;;;22.10;99.90;;;;;;6731646;88;20195;-77
2021/08/05 17:24:43;;;;;;;2.27;1.20;;;22.40;99.90;;;;;;6731488;88;20319;-76
2021/08/05 17:34:44;;;;;;;2.42;1.30;;;22.50;99.90;;;;;;6731736;88;20281;-77
2021/08/05 17:44:45;;;;;;;2.75;1.35;;;22.30;99.90;;;;;;6728286;88;20307;-75
2021/08/05 17:54:46;;;;;;;2.62;1.40;;;23.80;99.90;;;;;;6731693;88;20315;-77
2021/08/05 18:04:46;;;;;;;2.40;1.48;;;22.40;99.90;;;;;;6730886;88;20337;-77
2021/08/05 18:14:47;;;;;;;3.72;1.55;;;22.30;99.90;;;;;;6731178;88;20665;-77
2021/08/05 18:24:47;;;;;;;2.25;1.40;;;22.10;99.90;;;;;;6731106;88;20196;-76
2021/08/05 18:34:48;;;;;;;2.15;1.40;;;21.40;99.90;;;;;;6731171;88;20293;-76
2021/08/05 18:44:49;;;;;;;4.82;1.50;;;21.10;99.90;;;;;;6730595;88;20688;-75
2021/08/05 18:54:50;;;;;;;2.08;1.60;;;20.90;99.90;;;;;;6730982;88;20294;-75
2021/08/05 19:04:50;;;;;;;7.15;2.00;;;20.60;99.90;;;;;;6731605;88;20637;-76
2021/08/05 19:14:51;;;;;;;3.55;1.80;;;20.40;99.90;;;;;;6732912;88;20188;-76
2021/08/05 19:24:51;;;;;;;4.60;1.77;;;20.20;99.90;;;;;;6745360;88;20253;-76
2021/08/05 19:34:52;;;;;;;2.65;1.70;;;19.80;99.90;;;;;;6735532;88;20235;-79
2021/08/05 19:44:53;;;;;;;3.53;1.98;;;19.70;99.90;;;;;;6747715;88;20658;-77
2021/08/05 19:54:53;;;;;;;4.43;2.20;;;19.50;99.90;;;;;;6731964;88;20672;-76
2021/08/05 20:04:54;;;;;;;4.03;1.90;;;19.30;99.90;;;;;;6730968;88;20218;-78
2021/08/05 20:14:54;;;;;;;3.45;2.25;;;19.20;99.90;;;;;;6731366;88;20215;-76
2021/08/05 20:24:55;;;;;;;6.00;2.30;;;19.20;99.90;;;;;;6730134;88;20253;-77
2021/08/05 20:34:56;;;;;;;3.28;2.30;;;19.00;99.90;;;;;;6732053;88;20231;-76
2021/08/05 20:44:56;;;;;;;4.40;2.00;;;19.00;99.90;;;;;;6734308;88;20204;-77
2021/08/05 20:54:57;;;;;;;3.22;2.00;;;18.90;99.90;;;;;;6716741;88;20304;-77
2021/08/05 21:04:57;;;;;;;2.58;1.77;;;18.90;99.90;;;;;;6716052;88;20201;-77
2021/08/05 21:14:58;;;;;;;4.82;2.50;;;19.00;99.90;;;;;;6716118;88;20181;-76
2021/08/05 21:24:59;;;;;;;5.47;2.30;;;18.90;99.90;;;;;;6711699;88;20653;-76
2021/08/05 21:35:00;;;;;;;4.40;2.40;;;18.90;99.90;;;;;;6716194;88;20541;-76
2021/08/05 21:45:01;;;;;;;5.78;2.22;;;18.80;99.90;;;;;;6716062;88;20201;-77
2021/08/05 21:55:02;;;;;;;2.78;2.10;;;18.70;99.90;;;;;;6735896;88;20204;-76
2021/08/05 22:05:03;;;;;;;3.50;1.70;;;18.60;99.90;;;;;;6739928;88;20212;-77
2021/08/05 22:15:04;;;;;;;3.00;1.60;;;18.50;99.90;;;;;;6734330;88;20501;-76
2021/08/05 22:25:06;;;;;;;2.62;1.83;;;18.40;99.90;;;;;;6733801;88;20303;-76
2021/08/05 22:35:07;;;;;;;3.78;2.35;;;18.30;99.90;;;;;;6734041;88;20188;-76
2021/08/05 22:45:08;;;;;;;3.33;1.92;;;18.10;99.90;;;;;;6734083;88;20299;-76
2021/08/05 22:55:09;;;;;;;3.12;2.20;;;18.00;99.90;;;;;;6733039;88;20218;-76
2021/08/05 23:05:10;;;;;;;4.57;2.33;;;17.90;99.90;;;;;;6732957;88;20195;-76
2021/08/05 23:15:13;;;;;;;4.82;2.60;;;17.90;99.90;;;;;;6732921;88;20209;-77
2021/08/05 23:25:15;;;;;;;4.07;2.42;;;17.80;99.90;;;;;;6732556;88;20277;-76
2021/08/05 23:35:16;;;;;;;4.90;2.35;;;17.70;99.90;;;;;;6731975;88;20669;-75
2021/08/05 23:45:17;;;;;;;5.50;2.30;;;17.70;99.90;;;;;;6732837;88;20338;-76
2021/08/05 23:55:21;;;;;;;4.12;2.62;;;17.50;99.90;;;;;;6732558;88;20188;-76
